Pocahontas, MS (39072)

11:26 AM CST on January 26, 2015 (GMT -0600)
Residential | Change Station
CLOSE
Current Station
Personal Weather Station
Location: Madison, MS
Elevation: 325 ft
Nearby Weather Stations

Elev 325 ft 32.50 °N, 90.14 °W | Updated 47 seconds ago

Overcast
Overcast
46.7 °F
Feels Like 45 °F
N
4.0
Wind Variable Wind from North
Gusts 11.0 mph

Today
High -- | Low -- °F
--% Chance of Precip.
Yesterday
High -- | Low -- °F
Precip. -- in
6:59 AM 5:28 PM
Waxing Crescent, 45% visible
Pressure 30.15 in
Visibility 10.0 miles
Clouds Overcast 2500 ft
Windchill 45 °F
Dew Point 36 °F
Humidity 66%
Rainfall 0.00 in
Snow Depth Not available.
UV 1 out of 12
Pollen 6.20 out of 12
Air Quality Not available.
Flu Activity Not available.
METAR KHKS 261653Z 31009KT 10SM OVC025 09/01 A3016 RMK AO2 SLP209 T00890011

More Conditions Fewer Conditions

Pressure 30.15 in
Visibility 10.0 miles
Clouds Overcast 2500 ft
Windchill 45 °F
Dew Point 36 °F
Humidity 66%
Rainfall 0.00 in
Snow Depth Not available.
UV 1 out of 12
Pollen 6.20 out of 12
Air Quality Not available.
Flu Activity Not available.
METAR KHKS 261653Z 31009KT 10SM OVC025 09/01 A3016 RMK AO2 SLP209 T00890011

More Conditions Fewer Conditions

10-Day Weather Forecast

Almanac

Astronomy

Jan. 26, 2015 Rise Set
Actual Time
Civil Twilight
Nautical Twilight
Astronomical Twilight
Moon
Length of Visible Light
Length of Day
Tomorrow will be .
, % of the Moon is Illuminated

Today's Extremes

State Highs State Lows

Community

WunderPhotos

Upload Photos

1,790,298 photos uploaded!

WunderBlogs® & News

Nearby

Air Quality

  Air Quality AQ Index Pollutant
Not available.

Snow Depth

Station Depth Elevation

Earthquake Activity

City Distance Mag. Time & Date
Minimum magnitude displayed is 2.5.

Coastal Water Temperatures

Place Temperature

Nearby Weather Stations